Home > Products > Valid Products > MTR

000
SAUS44 KLCH 051001
MTRP92
METAR KP92 050953Z AUTO 31003KT 21/16 A2990 RMK AO1 SLP125 T02110161





000
SAUS44 KLCH 051001
MTRP92
METAR KP92 050953Z AUTO 31003KT 21/16 A2990 RMK AO1 SLP125 T02110161





000
SAUS44 KLCH 050859
MTRP92
METAR KP92 050853Z AUTO VRB04KT 22/17 A2988 RMK AO1 SLP119 T02170167
56009





000
SAUS44 KLCH 050859
MTRP92
METAR KP92 050853Z AUTO VRB04KT 22/17 A2988 RMK AO1 SLP119 T02170167
56009





000
SAUS44 KLCH 050759
MTRP92
METAR KP92 050753Z AUTO VRB04KT 22/18 A2989 RMK AO1 SLP119 T02170178





000
SAUS44 KLCH 050701
MTRP92
METAR KP92 050653Z AUTO VRB04KT 22/18 A2990 RMK AO1 SLP123 T02170183





000
SAUS44 KLCH 050701
MTRP92
METAR KP92 050653Z AUTO VRB04KT 22/18 A2990 RMK AO1 SLP123 T02170183





000
SAUS44 KLCH 050601
MTRP92
METAR KP92 050553Z AUTO VRB04KT 22/18 A2991 RMK AO1 SLP128 T02220183
10233 20206 402500150 58001





000
SAUS44 KLCH 050601
MTRP92
METAR KP92 050553Z AUTO VRB04KT 22/18 A2991 RMK AO1 SLP128 T02220183
10233 20206 402500150 58001





000
SAUS44 KLCH 050459
MTRP92
METAR KP92 050453Z AUTO VRB04KT 22/17 A2992 RMK AO1 SLP131 T02220167





000
SAUS44 KLCH 050459
MTRP92
METAR KP92 050453Z AUTO VRB04KT 22/17 A2992 RMK AO1 SLP131 T02220167





000
SAUS44 KLCH 050359
MTRP92
METAR KP92 050353Z AUTO 00000KT 21/17 A2992 RMK AO1 SLP130 T02110172





000
SAUS44 KLCH 050259
MTRP92
METAR KP92 050253Z AUTO 00000KT 22/15 A2991 RMK AO1 SLP129 T02220150
53009





000
SAUS44 KLCH 050200
MTRP92
METAR KP92 050153Z AUTO 30003KT 22/15 A2990 RMK AO1 SLP124 T02220150





000
SAUS44 KLCH 050059
MTRP92
METAR KP92 050053Z AUTO VRB03KT 23/13 A2989 RMK AO1 SLP122 T02280133





000
SAUS44 KLCH 042359
MTRP92
METAR KP92 042353Z AUTO 30005KT 23/13 A2989 RMK AO1 SLP120 T02330128
10250 20233 55005





000
SAUS44 KLCH 042359
MTRP92
METAR KP92 042353Z AUTO 30005KT 23/13 A2989 RMK AO1 SLP120 T02330128
10250 20233 55005





000
SAUS44 KLCH 042259
MTRP92
METAR KP92 042253Z AUTO VRB05KT 24/11 A2988 RMK AO1 SLP119 T02440111





000
SAUS44 KLCH 042259
MTRP92
METAR KP92 042253Z AUTO VRB05KT 24/11 A2988 RMK AO1 SLP119 T02440111





000
SAUS44 KLCH 042201
MTRP92
METAR KP92 042153Z AUTO 32006KT 25/09 A2989 RMK AO1 SLP121 T02500094





000
SAUS44 KLCH 042059
MTRP92
METAR KP92 042053Z AUTO 30008G16KT 270V330 24/12 A2990 RMK AO1
SLP125 T02440117 58021





000
SAUS44 KLCH 042001
MTRP92
METAR KP92 041953Z AUTO 32008G14KT 290V360 24/12 A2992 RMK AO1
SLP132 T02390122





000
SAUS44 KLCH 041859
MTRP92
METAR KP92 041853Z AUTO 32008KT 290V350 24/12 A2994 RMK AO1 SLP140
T02390117





000
SAUS44 KLCH 041759
MTRP92
METAR KP92 041753Z AUTO 32007KT 23/11 A2996 RMK AO1 SLP146 T02330106
10233 20156 58012





000
SAUS44 KLCH 041759
MTRP92
METAR KP92 041753Z AUTO 32007KT 23/11 A2996 RMK AO1 SLP146 T02330106
10233 20156 58012





000
SAUS44 KLCH 041659
MTRP92
METAR KP92 041653Z AUTO 36009G15KT 310V030 22/10 A2999 RMK AO1
SLP155 T02220100





000
SAUS44 KLCH 041659
MTRP92
METAR KP92 041653Z AUTO 36009G15KT 310V030 22/10 A2999 RMK AO1
SLP155 T02220100





000
SAUS44 KLCH 041559
MTRP92
METAR KP92 041553Z AUTO 36007G16KT 310V050 22/09 A3000 RMK AO1
SLP158 T02170094





000
SAUS44 KLCH 041501
MTRP92
METAR KP92 041453Z AUTO 36009G17KT 21/10 A3000 RMK AO1 SLP158
T02060100 53008





000
SAUS44 KLCH 041400
MTRP92
METAR KP92 041353Z AUTO 36008KT 19/12 A2999 RMK AO1 SLP155 T01890122





000
SAUS44 KLCH 041400
MTRP92
METAR KP92 041353Z AUTO 36008KT 19/12 A2999 RMK AO1 SLP155 T01890122





000
SAUS44 KLCH 041300
MTRP92
METAR KP92 041253Z AUTO VRB04KT 17/13 A2998 RMK AO1 SLP152 T01720128





000
SAUS44 KLCH 041300
MTRP92
METAR KP92 041253Z AUTO VRB04KT 17/13 A2998 RMK AO1 SLP152 T01720128





000
SAUS44 KLCH 041159
MTRP92
METAR KP92 041153Z AUTO VRB03KT 16/14 A2998 RMK AO1 SLP150 T01560139
10183 20150 53012





000
SAUS44 KLCH 041101
MTRP92
METAR KP92 041053Z AUTO 00000KT 16/14 A2995 RMK AO1 SLP143 T01560144





000
SAUS44 KLCH 041101
MTRP92
METAR KP92 041053Z AUTO 00000KT 16/14 A2995 RMK AO1 SLP143 T01560144





000
SAUS44 KLCH 040959
MTRP92
METAR KP92 040953Z AUTO 00000KT 16/14 A2994 RMK AO1 SLP138 T01610144





000
SAUS44 KLCH 040900
MTRP92
METAR KP92 040853Z AUTO VRB04KT 17/15 A2994 RMK AO1 SLP138 T01670150
57006





000
SAUS44 KLCH 040801
MTRP92
METAR KP92 040753Z AUTO 36004KT 17/16 A2995 RMK AO1 SLP141 T01720156





000
SAUS44 KLCH 040801
MTRP92
METAR KP92 040753Z AUTO 36004KT 17/16 A2995 RMK AO1 SLP141 T01720156





000
SAUS44 KLCH 040659
MTRP92
METAR KP92 040653Z AUTO VRB03KT 18/16 A2995 RMK AO1 SLP142 T01780161





000
SAUS44 KLCH 040559
MTRP92
METAR KP92 040553Z AUTO 35003KT 18/16 A2996 RMK AO1 SLP145 T01830161
10228 20183 402440183 51003





000
SAUS44 KLCH 040559
MTRP92
METAR KP92 040553Z AUTO 35003KT 18/16 A2996 RMK AO1 SLP145 T01830161
10228 20183 402440183 51003





000
SAUS44 KLCH 040501
MTRP92
METAR KP92 040453Z AUTO 35004KT 19/17 A2996 RMK AO1 SLP145 T01940167





000
SAUS44 KLCH 040501
MTRP92
METAR KP92 040453Z AUTO 35004KT 19/17 A2996 RMK AO1 SLP145 T01940167





000
SAUS44 KLCH 040359
MTRP92
METAR KP92 040353Z AUTO 34003KT 20/17 A2996 RMK AO1 SLP144 T02000172





000
SAUS44 KLCH 040302
MTRP92
METAR KP92 040253Z AUTO 00000KT 19/18 A2995 RMK AO1 SLP142 T01940183
53014





000
SAUS44 KLCH 040302
MTRP92
METAR KP92 040253Z AUTO 00000KT 19/18 A2995 RMK AO1 SLP142 T01940183
53014





000
SAUS44 KLCH 040200
MTRP92
METAR KP92 040153Z AUTO 00000KT 19/18 A2993 RMK AO1 SLP135 T01940183





000
SAUS44 KLCH 040200
MTRP92
METAR KP92 040153Z AUTO 00000KT 19/18 A2993 RMK AO1 SLP135 T01940183





000
SAUS44 KLCH 040100
MTRP92
METAR KP92 040053Z AUTO 00000KT 21/19 A2992 RMK AO1 SLP130 T02060189





000
SAUS44 KLCH 040000
MTRP92
METAR KP92 032353Z AUTO 00000KT 23/18 A2991 RMK AO1 SLP128 T02280178
10244 20222 53001





000
SAUS44 KLCH 040000
MTRP92
METAR KP92 032353Z AUTO 00000KT 23/18 A2991 RMK AO1 SLP128 T02280178
10244 20222 53001





000
SAUS44 KLCH 032259
MTRP92
METAR KP92 032253Z AUTO 36006KT 23/17 A2991 RMK AO1 SLP126 T02330167





000
SAUS44 KLCH 032259
MTRP92
METAR KP92 032253Z AUTO 36006KT 23/17 A2991 RMK AO1 SLP126 T02330167





000
SAUS44 KLCH 032201
MTRP92
METAR KP92 032153Z AUTO 34007KT 23/18 A2990 RMK AO1 SLP123 T02330183





000
SAUS44 KLCH 032100
MTRP92
METAR KP92 032053Z AUTO 35007KT 23/19 A2991 RMK AO1 SLP126 T02330189
56012





000
SAUS44 KLCH 032000
MTRP92
METAR KP92 031953Z AUTO VRB06KT 24/19 A2992 RMK AO1 SLP131 T02390194





000
SAUS44 KLCH 032000
MTRP92
METAR KP92 031953Z AUTO VRB06KT 24/19 A2992 RMK AO1 SLP131 T02390194





000
SAUS44 KLCH 031900
MTRP92
METAR KP92 031853Z AUTO 29007KT 24/20 A2993 RMK AO1 SLP134 T02390200





000
SAUS44 KLCH 031900
MTRP92
METAR KP92 031853Z AUTO 29007KT 24/20 A2993 RMK AO1 SLP134 T02390200





000
SAUS44 KLCH 031800
MTRP92
METAR KP92 031753Z AUTO 30004KT 24/20 A2994 RMK AO1 SLP138 T02390200
10239 20194 58013





000
SAUS44 KLCH 031800
MTRP92
METAR KP92 031753Z AUTO 30004KT 24/20 A2994 RMK AO1 SLP138 T02390200
10239 20194 58013





000
SAUS44 KLCH 031659
MTRP92
METAR KP92 031653Z AUTO 35006KT 23/19 A2996 RMK AO1 SLP146 T02280194





000
SAUS44 KLCH 031659
MTRP92
METAR KP92 031653Z AUTO 35006KT 23/19 A2996 RMK AO1 SLP146 T02280194





000
SAUS44 KLCH 031559
MTRP92
METAR KP92 031553Z AUTO 00000KT 22/19 A2997 RMK AO1 SLP149 T02170189





000
SAUS44 KLCH 031559
MTRP92
METAR KP92 031553Z AUTO 00000KT 22/19 A2997 RMK AO1 SLP149 T02170189





000
SAUS44 KLCH 031459
MTRP92
METAR KP92 031453Z AUTO 35006KT 21/19 A2998 RMK AO1 SLP151 T02060189
51017





000
SAUS44 KLCH 031400
MTRP92
METAR KP92 031353Z AUTO 01004KT 20/18 A2997 RMK AO1 SLP147 T02000183





000
SAUS44 KLCH 031259
MTRP92
METAR KP92 031253Z AUTO VRB05KT 19/18 A2995 RMK AO1 SLP141 T01940183





000
SAUS44 KLCH 031259
MTRP92
METAR KP92 031253Z AUTO VRB05KT 19/18 A2995 RMK AO1 SLP141 T01940183





000
SAUS44 KLCH 031159
MTRP92
METAR KP92 031153Z AUTO VRB05KT 19/18 A2993 RMK AO1 SLP134 T01940183
10211 20194 53008





000
SAUS44 KLCH 031159
MTRP92
METAR KP92 031153Z AUTO VRB05KT 19/18 A2993 RMK AO1 SLP134 T01940183
10211 20194 53008





000
SAUS44 KLCH 031059
MTRP92
METAR KP92 031053Z AUTO 36006KT 19/19 A2991 RMK AO1 SLP129 T01940189





000
SAUS44 KLCH 031059
MTRP92
METAR KP92 031053Z AUTO 36006KT 19/19 A2991 RMK AO1 SLP129 T01940189





000
SAUS44 KLCH 030959
MTRP92
METAR KP92 030953Z AUTO 35008G14KT 20/19 A2991 RMK AO1 SLP127
T02000189





000
SAUS44 KLCH 030859
MTRP92
METAR KP92 030853Z AUTO 36004KT 20/19 A2991 RMK AO1 SLP126 T02000194
56011





000
SAUS44 KLCH 030859
MTRP92
METAR KP92 030853Z AUTO 36004KT 20/19 A2991 RMK AO1 SLP126 T02000194
56011





000
SAUS44 KLCH 030759
MTRP92
METAR KP92 030753Z AUTO 01006KT 21/20 A2991 RMK AO1 SLP129 T02060200





000
SAUS44 KLCH 030659
MTRP92
METAR KP92 030653Z AUTO 36006KT 21/20 A2992 RMK AO1 SLP132 T02110200





000
SAUS44 KLCH 030659
MTRP92
METAR KP92 030653Z AUTO 36006KT 21/20 A2992 RMK AO1 SLP132 T02110200





000
SAUS44 KLCH 030559
MTRP92
METAR KP92 030553Z AUTO 36003KT 21/21 A2994 RMK AO1 SLP137 T02110206
10233 20206 402440194 58006





000
SAUS44 KLCH 030559
MTRP92
METAR KP92 030553Z AUTO 36003KT 21/21 A2994 RMK AO1 SLP137 T02110206
10233 20206 402440194 58006





000
SAUS44 KLCH 030459
MTRP92
METAR KP92 030453Z AUTO 00000KT 22/21 A2995 RMK AO1 SLP141 T02170206





000
SAUS44 KLCH 030459
MTRP92
METAR KP92 030453Z AUTO 00000KT 22/21 A2995 RMK AO1 SLP141 T02170206





000
SAUS44 KLCH 030359
MTRP92
METAR KP92 030353Z AUTO 00000KT 21/21 A2997 RMK AO1 SLP147 T02110206





000
SAUS44 KLCH 030359
MTRP92
METAR KP92 030353Z AUTO 00000KT 21/21 A2997 RMK AO1 SLP147 T02110206





000
SAUS44 KLCH 030300
MTRP92
METAR KP92 030253Z AUTO 35003KT 21/20 A2996 RMK AO1 SLP144 T02060200
53018





000
SAUS44 KLCH 030159
MTRP92
METAR KP92 030153Z AUTO 00000KT 21/20 A2994 RMK AO1 SLP138 T02060200





000
SAUS44 KLCH 030059
MTRP92
METAR KP92 030053Z AUTO 00000KT 21/20 A2991 RMK AO1 SLP129 T02110200





000
SAUS44 KLCH 022359
MTRP92
METAR KP92 022353Z AUTO 00000KT 23/20 A2990 RMK AO1 SLP126 T02330200
10244 20200 55002





000
SAUS44 KLCH 022359
MTRP92
METAR KP92 022353Z AUTO 00000KT 23/20 A2990 RMK AO1 SLP126 T02330200
10244 20200 55002





000
SAUS44 KLCH 022259
MTRP92
METAR KP92 022253Z AUTO VRB04KT 24/19 A2989 RMK AO1 SLP120 T02390189





000
SAUS44 KLCH 022159
MTRP92
METAR KP92 022153Z AUTO VRB05KT 23/21 A2990 RMK AO1 SLP126 T02280206





000
SAUS44 KLCH 022059
MTRP92
METAR KP92 022053Z AUTO 03003KT 23/20 A2991 RMK AO1 SLP127 T02280200
55027





000
SAUS44 KLCH 022059
MTRP92
METAR KP92 022053Z AUTO 03003KT 23/20 A2991 RMK AO1 SLP127 T02280200
55027





000
SAUS44 KLCH 021959
MTRP92
METAR KP92 021953Z AUTO 11004KT 22/20 A2991 RMK AO1 SLP127 T02170200





000
SAUS44 KLCH 021959
MTRP92
METAR KP92 021953Z AUTO 11004KT 22/20 A2991 RMK AO1 SLP127 T02170200





000
SAUS44 KLCH 021900
MTRP92
METAR KP92 021853Z AUTO VRB05KT 20/19 A2995 RMK AO1 PRESFR SLP143
T02000189





000
SAUS44 KLCH 021759
MTRP92
METAR KP92 021753Z AUTO 17003KT 20/19 A2999 RMK AO1 SLP154 T02000189
10211 20200 50004





000
SAUS44 KLCH 021759
MTRP92
METAR KP92 021753Z AUTO 17003KT 20/19 A2999 RMK AO1 SLP154 T02000189
10211 20200 50004





000
SAUS44 KLCH 021659
MTRP92
METAR KP92 021653Z AUTO 35007KT 21/20 A3003 RMK AO1 SLP167 T02060200





000
SAUS44 KLCH 021559
MTRP92
METAR KP92 021553Z AUTO VRB05KT 21/20 A3002 RMK AO1 SLP164 T02060200





000
SAUS44 KLCH 021559
MTRP92
METAR KP92 021553Z AUTO VRB05KT 21/20 A3002 RMK AO1 SLP164 T02060200





000
SAUS44 KLCH 021459
MTRP92
METAR KP92 021453Z AUTO 00000KT 21/20 A2998 RMK AO1 SLP151 T02060200
50026





000
SAUS44 KLCH 021401
MTRP92
METAR KP92 021353Z AUTO 35006KT 21/20 A2999 RMK AO1 SLP154 T02110200
$





000
SAUS44 KLCH 021259
MTRP92
METAR KP92 021253Z AUTO VRB03KT 21/19 A2994 RMK AO1 SLP137 T02060194
$





000
SAUS44 KLCH 021159
MTRP92
METAR KP92 021153Z AUTO 00000KT 20/19 A2990 RMK AO1 SLP125 T02000194
10211 20194 53006 $





000
SAUS44 KLCH 021159
MTRP92
METAR KP92 021153Z AUTO 00000KT 20/19 A2990 RMK AO1 SLP125 T02000194
10211 20194 53006 $





000
SAUS44 KLCH 021059
MTRP92
METAR KP92 021053Z AUTO VRB04KT 20/19 A2989 RMK AO1 SLP120 T02000194
$





000
SAUS44 KLCH 021059
MTRP92
METAR KP92 021053Z AUTO VRB04KT 20/19 A2989 RMK AO1 SLP120 T02000194
$





    US Dept of Commerce
    National Oceanic and Atmospheric Administration
    National Weather Service
    1325 East West Highway
    Silver Spring, MD 20910
    Page Author: NWS Internet Services Team
Disclaimer
Information Quality
Credits
Glossary
Privacy Policy
Freedom of Information Act (FOIA)
About Us
Career Opportunities